OIFS  Shahrekord Airport

Add Bookmark

Shahrekord, Iran

Status IATA
Operational CQD
Latitude Longitude
32° 17' 49" N 50° 50' 31" E
32.297199 50.842201
Local (DST + 5) UTC (GMT + 4)
Oct 30, 2014 03:42 Oct 30, 2014 12:12
Sunrise-Sunset Local UTC
Begin Civil Twilight 05:55 02:25
Sunrise 06:20 02:50
Sunset 05:19 13:49
End Civil Twilight 05:44 14:14

Current Weather

METAR Observed VFR
OIFS 301100Z 05004KT 9999 FEW030TCU BKN190 15/02 Q1022 Thu, Oct 30, 2014 @ 11:00 UTC
(1 Hour, 12 Minutes ago)
Visual Flight Rules
Wind Visibility Clouds Conditions
050° at 4 knots (7 kph) 10 km or more
  • Few at 3,000' AGL
  • Broken at 19,000' AGL
  • No significant weather
Temperatures Readings Precipitation
Current Temp 15°C (59°F)
Dewpoint 2°C (36°F)
Humidity 42%
Altimeter 30.18"Hg
Sea Level Pressure 1022mb
Field Elevation 6817.59'
None Recorded

Additional weather within a 185.2km radius of OIFS

Map ICAO Location
OIFM 108km E (062°)
OIAI 151.5km W (258°)

24 Hour Weather History

Loading
-

24 Hour Weather Graphs

Loading
-

CheckWX.com is intended as a tool to help pilots better visualize weather data. It is not intended as a substitute for an official weather briefing obtained from a Flight Service Station. CheckWX.com does not meet the FAA requirements for an official pre-flight weather briefing. Therefore, it's important that pilots still call and obtain an official FSS pre-flight weather briefing.